Flight Track Log - Related Links

Times and Time Zones

All times are in EDT time to prevent confusion due to time zone crossing. See the N823M flight status page for this flight to view local times or setup timezone preferences in your user account.

Time Position Orientation Groundspeed Altitude Reporting Facility
EDT Latitude Longitude Course Direction KTS MPH feet Rate Location/Type
Thu 01:41:21 AM 33.6997 -112.1106 332° Northwest 157 181 2,900  Level Albuquerque Center
Thu 01:42:21 AM 33.7286 -112.0633 54° Northeast 201 231 5,200 2,231 Climbing Albuquerque Center
Thu 01:43:22 AM 33.7558 -112.0100 58° Northeast 191 220 7,400 2,182 Climbing Albuquerque Center
Thu 01:44:22 AM 33.7639 -111.9467 81° East 210 242 9,600 2,182 Climbing Albuquerque Center
Thu 01:45:23 AM 33.7564 -111.8811 98° East 202 232 11,800 1,983 Climbing Albuquerque Center
Thu 01:46:23 AM 33.7494 -111.8122 97° East 206 237 13,600 1,339 Climbing Albuquerque Center
Thu 01:47:24 AM 33.7406 -111.7308 97° East 246 283 14,500 1,686 Climbing Albuquerque Center
Thu 01:48:24 AM 33.7544 -111.6544 78° East 243 280 17,000 2,281 Climbing Albuquerque Center
Thu 01:49:25 AM 33.7786 -111.5650 72° East 237 273 19,100 1,934 Climbing Albuquerque Center
Thu 01:50:25 AM 33.8000 -111.4894 71° East 240 276 20,900 1,636 Climbing Albuquerque Center
Thu 01:51:26 AM 33.8219 -111.4119 71° East 245 282 22,400 1,388 Climbing Albuquerque Center
Thu 01:52:26 AM 33.8444 -111.3278 72° East 258 297 23,700 1,400 Climbing Albuquerque Center
Thu 01:53:26 AM 33.8692 -111.2422 71° East 269 310 25,200 1,438 Climbing Albuquerque Center
Thu 01:54:27 AM 33.8928 -111.1533 72° East 277 319 26,600 1,339 Climbing Albuquerque Center
Thu 01:55:27 AM 33.9172 -111.0639 72° East 282 325 27,900 1,190 Climbing Albuquerque Center
Thu 01:56:28 AM 33.9414 -110.9722 72° East 287 330 29,000 1,091 Climbing Albuquerque Center
Thu 01:57:28 AM 33.9669 -110.8789 72° East 291 335 30,100 992 Climbing Albuquerque Center
Thu 01:58:29 AM 33.9928 -110.7833 72° East 298 343 31,000 934 Climbing Albuquerque Center
Thu 01:59:30 AM 34.0206 -110.6797 72° East 304 350 32,000 893 Climbing Albuquerque Center
Thu 02:00:30 AM 34.0458 -110.5833 72° East 305 351 32,800 900 Climbing Albuquerque Center
Thu 02:01:30 AM 34.0728 -110.4858 72° East 308 354 33,800 843 Climbing Albuquerque Center
Thu 02:02:31 AM 34.0989 -110.3881 72° East 309 356 34,500 645 Climbing Albuquerque Center
Thu 02:03:31 AM 34.1258 -110.2875 72° East 313 360 35,100 550 Climbing Albuquerque Center
Thu 02:04:31 AM 34.1528 -110.1869 72° East 316 364 35,600 744 Climbing Albuquerque Center
Thu 02:05:32 AM 34.1817 -110.0764 72° East 319 367 36,600 793 Climbing Albuquerque Center
Thu 02:06:32 AM 34.2067 -109.9819 72° East 312 359 37,200 545 Climbing Albuquerque Center
Thu 02:07:33 AM 34.2358 -109.8706 72° East 312 359 37,700 496 Climbing Albuquerque Center
Thu 02:08:33 AM 34.2606 -109.7750 73° East 311 358 38,200 450 Climbing Albuquerque Center
Thu 02:09:33 AM 34.2861 -109.6811 72° East 310 357 38,600 397 Climbing Albuquerque Center
Thu 02:10:34 AM 34.3100 -109.5864 73° East 308 354 39,000 198 Climbing Albuquerque Center
Thu 02:11:34 AM 34.3386 -109.4756 73° East 308 354 39,000  Level Albuquerque Center
Thu 02:12:34 AM 34.3642 -109.3778 72° East 314 361 39,000  Level Albuquerque Center
Thu 02:13:35 AM 34.3906 -109.2767 72° East 323 372 39,000  Level Albuquerque Center
Thu 02:14:35 AM 34.4214 -109.1542 73° East 334 384 39,000  Level Albuquerque Center
Thu 02:15:35 AM 34.4383 -109.0458 79° East 340 391 39,000  Level Albuquerque Center
Thu 02:16:36 AM 34.4558 -108.9361 79° East 343 395 39,000 198 Level Albuquerque Center
Thu 02:17:36 AM 34.4753 -108.8069 80° East 348 400 39,400 750 Climbing Albuquerque Center
Thu 02:18:36 AM 34.4906 -108.7028 80° East 340 391 40,500 744 Climbing Albuquerque Center
Thu 02:19:37 AM 34.5044 -108.6100 80° East 317 365 40,900 248 Climbing Albuquerque Center
Thu 02:20:37 AM 34.5175 -108.5203 80° East 297 342 41,000 50 Climbing Albuquerque Center
Thu 02:21:37 AM 34.5336 -108.4161 79° East 294 338 41,000  Level Albuquerque Center
Thu 02:22:37 AM 34.5481 -108.3147 80° East 300 345 41,000  Level Albuquerque Center
Thu 02:23:38 AM 34.5625 -108.2144 80° East 303 349 41,000  Level Albuquerque Center
Thu 02:24:38 AM 34.5778 -108.1106 80° East 310 357 41,000  Level Albuquerque Center
Thu 02:25:38 AM 34.5922 -108.0061 80° East 313 360 41,000  Level Albuquerque Center
Thu 02:26:39 AM 34.6075 -107.9011 80° East 316 364 41,000  Level Albuquerque Center
Thu 02:27:39 AM 34.6219 -107.7942 81° East 320 368 41,000  Level Albuquerque Center
Thu 02:28:39 AM 34.6367 -107.6889 80° East 319 367 41,000  Level Albuquerque Center
Thu 02:29:40 AM 34.6514 -107.5806 81° East 324 373 41,000  Level Albuquerque Center
Thu 02:30:40 AM 34.6669 -107.4722 80° East 326 375 41,000  Level Albuquerque Center
Thu 02:31:40 AM 34.6811 -107.3622 81° East 329 379 41,000  Level Albuquerque Center
Thu 02:32:41 AM 34.6967 -107.2528 80° East 331 381 41,000  Level Albuquerque Center
Thu 02:33:41 AM 34.7111 -107.1428 81° East 331 381 41,000  Level Albuquerque Center
Thu 02:34:41 AM 34.7258 -107.0314 81° East 335 386 41,000  Level Albuquerque Center
Thu 02:35:42 AM 34.7397 -106.9200 81° East 336 387 41,000  Level Albuquerque Center
Thu 02:36:42 AM 34.7542 -106.8083 81° East 338 389 41,000  Level Albuquerque Center
Thu 02:37:42 AM 34.7689 -106.6967 81° East 338 389 41,000  Level Albuquerque Center
Thu 02:38:42 AM 34.7842 -106.5847 81° East 339 390 41,000  Level Albuquerque Center
Thu 02:39:43 AM 34.7989 -106.4711 81° East 340 391 41,000  Level Albuquerque Center
Thu 02:40:43 AM 34.8172 -106.3336 81° East 344 396 41,000  Level Albuquerque Center
Thu 02:41:43 AM 34.8303 -106.2192 82° East 344 396 41,000  Level Albuquerque Center
Thu 02:42:44 AM 34.8444 -106.1053 81° East 343 395 41,000  Level Albuquerque Center
Thu 02:43:44 AM 34.8578 -105.9911 82° East 343 395 41,000  Level Albuquerque Center
Thu 02:44:44 AM 34.8736 -105.8769 80° East 342 394 41,000  Level Albuquerque Center
Thu 02:45:44 AM 34.8872 -105.7725 81° East 343 395 41,000  Level Albuquerque Center
Thu 02:46:45 AM 34.9000 -105.6564 82° East 343 395 41,000  Level Albuquerque Center
Thu 02:47:45 AM 34.9153 -105.5400 81° East 344 396 41,000  Level Albuquerque Center
Thu 02:48:45 AM 34.9289 -105.4217 82° East 348 400 41,000  Level Albuquerque Center
Thu 02:49:46 AM 34.9425 -105.3028 82° East 349 402 41,000  Level Albuquerque Center
Thu 02:50:46 AM 34.9572 -105.1853 81° East 349 402 41,000  Level Albuquerque Center
Thu 02:51:46 AM 34.9714 -105.0681 82° East 348 400 41,000  Level Albuquerque Center
Thu 02:52:47 AM 34.9850 -104.9492 82° East 350 403 41,000  Level Albuquerque Center
Thu 02:53:47 AM 34.9986 -104.8303 82° East 351 404 41,000  Level Albuquerque Center
Thu 02:54:47 AM 35.0125 -104.7108 82° East 353 406 41,000  Level Albuquerque Center
Thu 02:55:47 AM 35.0261 -104.5906 82° East 355 409 41,000  Level Albuquerque Center
Thu 02:56:48 AM 35.0389 -104.4731 82° East 350 403 41,000  Level Albuquerque Center
Thu 02:57:48 AM 35.0517 -104.3542 82° East 352 405 41,000  Level Albuquerque Center
Thu 02:58:48 AM 35.0647 -104.2358 82° East 353 406 41,000  Level Albuquerque Center
Thu 02:59:48 AM 35.0792 -104.1236 81° East 352 405 41,000  Level Albuquerque Center
Thu 03:00:49 AM 35.0917 -104.0064 83° East 349 402 41,000  Level Albuquerque Center
Thu 03:01:49 AM 35.1044 -103.8839 83° East 350 403 41,000  Level Albuquerque Center
Thu 03:02:49 AM 35.1169 -103.7661 83° East 349 402 41,000  Level Albuquerque Center
Thu 03:03:50 AM 35.1300 -103.6478 82° East 349 402 41,000  Level Albuquerque Center
Thu 03:04:50 AM 35.1417 -103.5289 83° East 350 403 41,000  Level Albuquerque Center
Thu 03:05:50 AM 35.1542 -103.4092 83° East 353 406 41,000  Level Albuquerque Center
Thu 03:06:50 AM 35.1669 -103.2900 82° East 352 405 41,000  Level Albuquerque Center
Thu 03:07:51 AM 35.1789 -103.1703 83° East 352 405 41,000  Level Albuquerque Center
Thu 03:08:51 AM 35.1914 -103.0494 83° East 354 407 41,000  Level Albuquerque Center
Thu 03:09:51 AM 35.2028 -102.9183 84° East 354 407 41,000  Level Albuquerque Center
Thu 03:10:52 AM 35.2069 -102.7989 88° East 353 406 41,000  Level Albuquerque Center
Thu 03:11:52 AM 35.2025 -102.6803 93° East 351 404 41,000  Level Albuquerque Center
Thu 03:12:52 AM 35.2000 -102.5600 91° East 354 407 41,000  Level Albuquerque Center
Thu 03:13:52 AM 35.1983 -102.4408 91° East 353 406 41,000  Level Albuquerque Center
Thu 03:14:53 AM 35.1947 -102.3211 92° East 353 406 41,000  Level Albuquerque Center
Thu 03:15:53 AM 35.1917 -102.2031 92° East 350 403 41,000  Level Albuquerque Center
Thu 03:16:53 AM 35.1903 -102.0825 91° East 355 409 41,000  Level Albuquerque Center
Thu 03:17:54 AM 35.1878 -101.9633 91° East 353 406 41,000  Level Albuquerque Center
Thu 03:18:54 AM 35.1867 -101.8411 91° East 355 409 41,000  Level Albuquerque Center
Thu 03:19:54 AM 35.1844 -101.7192 91° East 356 410 41,000  Level Albuquerque Center
Thu 03:20:54 AM 35.1839 -101.5986 90° East 353 406 41,000  Level Albuquerque Center
Thu 03:21:55 AM 35.1825 -101.4781 91° East 354 407 41,000  Level Albuquerque Center
Thu 03:22:55 AM 35.1817 -101.3569 90° East 356 410 41,000  Level Albuquerque Center
Thu 03:23:55 AM 35.1797 -101.2497 91° East 360 414 41,000  Level Albuquerque Center
Thu 03:24:56 AM 35.1803 -101.1286 90° East 358 412 41,000  Level Albuquerque Center
Thu 03:25:56 AM 35.1811 -101.0064 89° East 360 414 41,000  Level Albuquerque Center
Thu 03:26:56 AM 35.1814 -100.8839 90° East 361 415 41,000  Level Albuquerque Center
Thu 03:27:56 AM 35.1811 -100.7611 90° East 362 417 41,000  Level Albuquerque Center
Thu 03:28:57 AM 35.1789 -100.6381 91° East 363 418 41,000  Level Albuquerque Center
Thu 03:29:57 AM 35.1778 -100.5158 91° East 361 415 41,000  Level Albuquerque Center
Thu 03:30:57 AM 35.1761 -100.3744 91° East 362 417 41,000  Level Albuquerque Center
Thu 03:31:58 AM 35.1711 -100.2517 93° East 362 417 41,000 -545 Level Albuquerque Center
Thu 03:32:58 AM 35.1664 -100.1281 93° East 364 419 39,900 -1,500 Descending Albuquerque Center
Thu 03:33:58 AM 35.1575 -99.9919 95° East 389 448 38,000 -1,950 Descending Albuquerque Center
Thu 03:34:58 AM 35.1469 -99.8608 96° East 391 450 36,000 -1,934 Descending Albuquerque Center
Thu 03:35:59 AM 35.1372 -99.7322 95° East 385 443 34,100 -1,884 Descending Albuquerque Center
Thu 03:36:59 AM 35.1306 -99.6083 94° East 373 429 32,200 -1,850 Descending Albuquerque Center
Thu 03:37:59 AM 35.1239 -99.4836 94° East 369 425 30,400 -1,745 Descending Albuquerque Center
Thu 03:38:49 AM 35.1194 -99.3933 93° East 358 412 29,000 -1,691 Descending Fort Worth Center
Thu 03:39:49 AM 35.1189 -99.2817 90° East 344 396 27,300 -1,700 Descending Fort Worth Center
Thu 03:40:49 AM 35.1186 -99.1700 90° East 333 383 25,600 -1,600 Descending Fort Worth Center
Thu 03:41:49 AM 35.1264 -99.0608 85° East 321 369 24,100 -1,450 Descending Fort Worth Center
Thu 03:42:49 AM 35.1319 -98.9544 86° East 316 364 22,700 -1,500 Descending Fort Worth Center
Thu 03:43:49 AM 35.1372 -98.8453 87° East 316 364 21,100 -1,600 Descending Fort Worth Center
Thu 03:44:49 AM 35.1428 -98.7339 86° East 316 364 19,500 -1,540 Descending Fort Worth Center
Thu 03:45:42 AM 35.1478 -98.6297 87° East 332 382 18,200 -1,412 Descending Fort Worth Center
Thu 03:46:48 AM 35.1531 -98.5156 87° East 320 368 16,700 -1,370 Descending Fort Worth Center
Thu 03:47:49 AM 35.1644 -98.4167 82° East 315 362 15,300 -1,388 Descending Fort Worth Center
Thu 03:48:49 AM 35.1756 -98.3128 83° East 305 351 13,900 -1,350 Descending Fort Worth Center
Thu 03:49:49 AM 35.2200 -98.2319 56° Northeast 280 322 12,600 -1,450 Descending Fort Worth Center
Thu 03:50:49 AM 35.2706 -98.1611 49° Northeast 272 313 11,000 -1,550 Descending Fort Worth Center
Thu 03:51:49 AM 35.3208 -98.0928 48° Northeast 272 313 9,500 -1,450 Descending Fort Worth Center
Thu 03:52:49 AM 35.3714 -98.0244 48° Northeast 272 313 8,100 -1,450 Descending Fort Worth Center
Thu 03:53:49 AM 35.4217 -97.9586 47° Northeast 267 307 6,600 -1,500 Descending Fort Worth Center
Thu 03:54:49 AM 35.4636 -97.8875 54° Northeast 267 307 5,100 -1,300 Descending Fort Worth Center
Thu 03:55:49 AM 35.4703 -97.8011 85° East 241 277 4,000 -1,050 Descending Fort Worth Center
Thu 03:56:49 AM 35.4789 -97.7169 83° East 241 277 3,000 -750 Descending Fort Worth Center
Thu 03:57:49 AM 35.5228 -97.6992 18° North 191 220 2,500 -650 Descending Fort Worth Center
Thu 03:58:49 AM 35.5644 -97.7044 354° North 142 163 1,700 -650 Descending Fort Worth Center
Thu 03:59:49 AM 35.5914 -97.7072 355° North 120 138 1,200 -500 Descending Fort Worth Center
Thu 04:01:00 AM 35.6000 -97.7000 58° Northeast  Level FlightAware Approximate

Login

Don't have an account? Register now (free) for customized features, flight alerts, and more!